Ben Bolt, Texas
Current Conditions -  °F | °C
As of 6:53 PM on Thursday 27 Nov 2014 (Local Time) from KALI Reporting Station
Clear Clear  
Wind Chill: 59°   Ceiling: Unl
Heat Index: 59°   Visibility: 10mi
Dew Point: 53°   Wind: 7mph
Humidity: 81%   Direction: 80°E
Pressure: 30.39"   Gusts: NA
Location:  27.65°N, 98.08°W
Report Text: KALI 280053Z AUTO 08006KT 10SM CLR 15/12 A3039 RMK AO2 SLP289 T01500117 $
Loading
Personal Weather Stations






























Interactive Weather Map New forecast layout! Learn more

10-Day Weather Forecast

Advertisements
Track Severe Weather on mobile